Latest Weather Observations for Coffs Harbour Airport

IDN60801

Issued at 6:32 pm EST Thursday 27 July 2017 (issued every 30 minutes, with the page automatically refreshed every 10 minutes)

About weather observations | Map of weather stations | Latest weather observations for NSW | Other Formats
Station Details ID: 059151 Name: COFFS HARBOUR AIRPORT Lat: -30.32 Lon: 153.12 Height: 3.5 m
Data from the previous 72 hours. | See also: Recent months at Coffs Harbour Airport
Date/Time
EST
Temp
°C
App
Temp
°C
Dew
Point
°C
Rel
Hum
%
Delta-T
°C
Wind Press
QNH
hPa
Press
MSL
hPa
Rain since
9am
mm
Dir  Spd
km/h
Gust
km/h
Spd
kts
Gust
kts
27/06:30pm 11.5 10.7 9.6 88 1.0 NW 4 7 2 4 1023.8 1023.8 0.0
27/06:00pm 11.7 10.9 9.6 87 1.1 W 4 9 2 5 1023.9 1023.9 0.0
27/05:30pm 12.5 12.5 9.7 83 1.4 CALM 0 0 0 0 1023.7 1023.7 0.0
27/05:00pm 15.2 15.2 9.8 70 2.8 CALM 0 0 0 0 1023.5 1023.5 0.0
27/04:30pm 17.0 15.3 9.9 63 3.7 SE 9 11 5 6 1023.1 1023.1 0.0
27/04:00pm 17.6 15.9 9.8 60 4.1 SSE 9 13 5 7 1023.2 1023.2 0.0
27/03:30pm 17.6 15.2 8.7 56 4.6 SSE 11 15 6 8 1023.3 1023.3 0.0
27/03:00pm 17.9 15.1 8.5 54 4.8 SSE 13 19 7 10 1023.1 1023.1 0.0
27/02:30pm 18.2 15.0 8.5 53 5.0 SSE 15 17 8 9 1023.2 1023.2 0.0
27/02:00pm 18.3 15.1 8.3 52 5.1 SSE 15 20 8 11 1023.1 1023.1 0.0
27/01:30pm 18.4 14.2 7.5 49 5.5 S 19 24 10 13 1023.1 1023.1 0.0
27/01:00pm 18.8 14.2 6.6 45 6.1 SSE 20 28 11 15 1023.5 1023.5 0.0
27/12:30pm 18.7 13.9 4.8 40 6.7 S 19 24 10 13 1023.8 1023.8 0.0
27/12:00pm 18.8 13.5 3.0 35 7.3 SSW 20 26 11 14 1024.3 1024.3 0.0
27/11:30am 18.5 13.5 4.7 40 6.6 S 20 28 11 15 1024.9 1024.9 0.0
27/11:00am 18.0 12.6 4.6 41 6.4 S 22 28 12 15 1025.3 1025.3 0.0
27/10:30am 17.8 13.2 3.7 39 6.6 S 17 22 9 12 1025.4 1025.4 0.0
27/10:00am 17.3 13.1 3.6 40 6.3 SSW 15 20 8 11 1025.6 1025.6 0.0
27/09:30am 17.4 12.7 3.3 39 6.5 SW 17 22 9 12 1025.4 1025.4 0.0
27/09:00am 16.8 13.7 5.7 48 5.3 SW 11 17 6 9 1025.2 1025.2 0.0
27/08:30am 15.4 12.8 6.2 54 4.4 SW 9 11 5 6 1024.8 1024.8 0.0
27/08:00am 12.7 12.3 8.4 75 2.1 CALM 0 0 0 0 1024.6 1024.6 0.0
27/07:30am 8.7 7.7 5.4 80 1.5 CALM 0 0 0 0 1024.3 1024.3 0.0
27/07:00am 7.5 4.8 3.6 76 1.7 SSW 7 9 4 5 1023.9 1023.9 0.0
27/06:30am 8.2 6.6 2.7 68 2.3 CALM 0 0 0 0 1023.5 1023.5 0.0
27/06:00am 10.9 7.8 3.5 60 3.2 WSW 9 13 5 7 1023.0 1023.0 0.0
27/05:30am 11.7 7.8 3.5 57 3.6 WSW 13 17 7 9 1022.4 1022.4 0.0
27/05:00am 12.3 8.0 3.5 55 3.9 WSW 15 19 8 10 1022.1 1022.1 0.0
27/04:30am 12.2 8.2 2.9 53 4.1 SW 13 15 7 8 1021.9 1021.9 0.0
27/04:00am 13.3 9.0 3.1 50 4.5 WSW 15 19 8 10 1021.7 1021.7 0.0
27/03:30am 14.3 10.0 3.2 47 5.0 WSW 15 20 8 11 1021.5 1021.5 0.0
27/03:00am 13.8 9.2 3.9 51 4.5 WSW 17 22 9 12 1021.3 1021.3 0.0
27/02:30am 11.2 7.6 4.9 65 2.9 WSW 13 15 7 8 1021.2 1021.2 0.0
27/02:00am 7.0 4.4 4.3 83 1.2 WSW 7 9 4 5 1021.0 1021.0 0.0
27/01:30am 7.7 6.0 5.7 87 0.9 NW 4 7 2 4 1020.9 1020.9 0.0
27/01:00am 6.6 3.7 4.8 88 0.8 WSW 9 11 5 6 1020.7 1020.7 0.0
27/12:30am 7.0 5.8 4.5 84 1.1 CALM 0 0 0 0 1020.5 1020.5 0.0
27/12:00am 8.1 6.8 5.9 86 1.0 WNW 2 9 1 5 1020.5 1020.5 0.0
 
Date/Time
EST
Temp
°C
App
Temp
°C
Dew
Point
°C
Rel
Hum
%
Delta-T
°C
Wind Press
QNH
hPa
Press
MSL
hPa
Rain since
9am
mm
Dir  Spd
km/h
Gust
km/h
Spd
kts
Gust
kts
26/11:30pm 8.9 7.6 5.8 81 1.4 WNW 2 9 1 5 1020.2 1020.2 0.0
26/11:00pm 9.7 8.3 5.5 75 1.9 WNW 2 11 1 6 1019.9 1019.9 0.0
26/10:30pm 10.0 7.4 4.4 68 2.5 N 7 7 4 4 1019.9 1019.9 0.0
26/10:00pm 14.5 11.2 4.5 51 4.6 W 11 15 6 8 1019.6 1019.6 0.0
26/09:30pm 14.6 10.9 4.6 51 4.6 WSW 13 17 7 9 1019.4 1019.4 0.0
26/09:00pm 17.9 13.2 3.0 37 6.8 WSW 17 20 9 11 1019.2 1019.2 0.0
26/08:30pm 18.2 13.5 2.9 36 7.1 WSW 17 26 9 14 1019.1 1019.1 0.0
26/08:00pm 17.4 13.7 4.4 42 6.1 W 13 19 7 10 1018.9 1018.9 0.0
26/07:30pm 15.0 12.2 6.8 58 4.0 NW 11 15 6 8 1018.6 1018.6 0.0
26/07:00pm 13.2 11.1 6.5 64 3.2 NE 7 11 4 6 1018.3 1018.3 0.0
26/06:30pm 17.1 14.2 6.3 49 5.3 W 11 15 6 8 1017.3 1017.3 0.0
26/06:00pm 13.9 12.7 7.9 67 3.0 WSW 4 9 2 5 1017.3 1017.3 0.0
26/05:30pm 16.5 15.4 9.9 65 3.5 NNW 6 9 3 5 1016.8 1016.8 0.0
26/05:00pm 20.4 18.5 7.4 43 6.6 WNW 7 9 4 5 1016.5 1016.5 0.0
26/04:30pm 23.3 20.9 8.6 39 7.8 SW 11 15 6 8 1016.2 1016.2 0.0
26/04:00pm 24.3 22.6 9.8 40 7.9 NE 9 11 5 6 1016.0 1016.0 0.0
26/03:30pm 24.6 22.4 9.3 38 8.3 NE 11 13 6 7 1015.8 1015.8 0.0
26/03:00pm 25.7 24.1 6.3 29 10.0 NNW 4 11 2 6 1015.7 1015.7 0.0
26/02:30pm 25.2 22.6 7.8 33 9.2 NW 11 15 6 8 1015.9 1015.9 0.0
26/02:00pm 24.8 22.1 7.4 33 9.1 NW 11 15 6 8 1016.0 1016.0 0.0
26/01:30pm 25.3 23.5 7.0 31 9.6 WNW 6 11 3 6 1016.4 1016.4 0.0
26/01:00pm 24.7 21.5 5.0 28 9.9 NNW 11 15 6 8 1016.7 1016.7 0.0
26/12:30pm 24.1 21.3 6.8 33 9.0 N 11 15 6 8 1017.3 1017.3 0.0
26/12:00pm 23.2 20.2 7.7 37 8.1 NW 13 17 7 9 1017.9 1017.9 0.0
26/11:30am 22.5 19.4 7.1 37 7.9 N 13 17 7 9 1018.5 1018.5 0.0
26/11:00am 21.4 18.8 7.6 41 7.1 NNW 11 15 6 8 1019.1 1019.1 0.0
26/10:30am 20.5 16.6 7.2 42 6.8 NW 17 22 9 12 1019.4 1019.4 0.0
26/10:00am 19.5 15.7 5.9 41 6.7 NW 15 19 8 10 1019.8 1019.8 0.0
26/09:30am 18.6 14.4 5.8 43 6.3 NW 17 22 9 12 1020.1 1020.1 0.0
26/09:00am 17.7 14.4 6.6 48 5.5 NW 13 17 7 9 1020.1 1020.1 0.0
26/08:30am 15.6 12.1 7.4 58 4.1 NNW 15 20 8 11 1020.1 1020.1 0.0
26/08:00am 11.6 10.9 8.5 81 1.5 WNW 2 7 1 4 1020.3 1020.3 0.0
26/07:30am 7.9 6.5 7.1 95 0.4 SW 4 7 2 4 1020.1 1020.1 0.0
26/07:00am 5.5 3.0 4.6 94 0.4 SW 7 13 4 7 1020.4 1020.4 0.0
26/06:30am 4.4 1.6 3.4 93 0.4 NW 7 9 4 5 1020.3 1020.3 0.0
26/06:00am 4.3 1.5 3.0 91 0.5 SW 7 11 4 6 1020.0 1020.0 0.0
26/05:30am 4.9 2.8 4.0 94 0.4 NNW 4 7 2 4 1020.0 1020.0 0.0
26/05:00am 5.2 2.6 4.3 94 0.4 WNW 7 9 4 5 1020.1 1020.1 0.0
26/04:30am 4.7 2.5 3.2 90 0.6 WNW 4 11 2 6 1020.3 1020.3 0.0
26/04:00am 6.1 3.7 5.1 93 0.4 WNW 7 9 4 5 1020.4 1020.4 0.0
26/03:30am 6.0 3.1 4.6 91 0.6 NW 9 9 5 5 1020.5 1020.5 0.0
26/03:00am 6.9 4.6 4.7 86 1.0 SW 6 7 3 4 1020.8 1020.8 0.0
26/02:30am 8.5 6.6 4.9 78 1.6 W 4 7 2 4 1021.0 1021.0 0.0
26/02:00am 11.0 7.9 5.5 69 2.5 WNW 11 13 6 7 1021.0 1021.0 0.0
26/01:30am 10.0 6.2 5.6 74 2.0 NW 15 17 8 9 1021.0 1021.0 0.0
26/01:00am 7.5 4.1 6.1 91 0.6 NW 13 15 7 8 1021.2 1021.2 0.0
26/12:30am 6.3 4.2 5.6 95 0.3 W 6 7 3 4 1021.2 1021.2 0.0
26/12:00am 5.9 3.0 4.9 93 0.4 NNW 9 9 5 5 1021.4 1021.4 0.0
 
Date/Time
EST
Temp
°C
App
Temp
°C
Dew
Point
°C
Rel
Hum
%
Delta-T
°C
Wind Press
QNH
hPa
Press
MSL
hPa
Rain since
9am
mm
Dir  Spd
km/h
Gust
km/h
Spd
kts
Gust
kts
25/11:30pm 5.8 3.5 4.6 92 0.5 WNW 6 9 3 5 1021.5 1021.5 0.0
25/11:00pm 7.1 6.2 6.0 93 0.5 CALM 0 0 0 0 1021.8 1021.8 0.0
25/10:30pm 7.3 6.0 6.1 92 0.5 W 2 7 1 4 1021.8 1021.8 0.0
25/10:00pm 8.2 7.1 7.0 92 0.6 W 2 7 1 4 1022.0 1022.0 0.0
25/09:30pm 8.4 6.5 6.9 90 0.7 NW 6 7 3 4 1022.1 1022.1 0.0
25/09:00pm 9.0 7.1 7.5 90 0.7 NW 7 9 4 5 1022.1 1022.1 0.0
25/08:30pm 8.8 6.8 6.9 88 0.9 NW 7 9 4 5 1022.2 1022.2 0.0
25/08:00pm 9.0 7.1 7.5 90 0.7 NW 7 9 4 5 1022.2 1022.2 0.0
25/07:30pm 9.6 7.9 7.7 88 0.9 NW 6 7 3 4 1022.1 1022.1 0.0
25/07:00pm 10.0 8.1 7.6 85 1.1 NW 7 9 4 5 1022.1 1022.1 0.0
25/06:30pm 10.3 8.6 8.2 87 1.0 NW 7 9 4 5 1021.8 1021.8 0.0
25/06:00pm 10.8 9.1 7.7 81 1.5 NNW 6 7 3 4 1021.6 1021.6 0.0
25/05:30pm 12.6 11.0 8.1 74 2.2 NNW 6 7 3 4 1021.5 1021.5 0.0
25/05:00pm 15.5 13.6 7.5 59 4.0 NE 7 9 4 5 1021.3 1021.3 0.0
25/04:30pm 18.2 16.3 6.7 47 5.7 ENE 6 9 3 5 1021.2 1021.2 0.0
25/04:00pm 18.7 16.2 6.5 45 6.0 E 9 11 5 6 1021.2 1021.2 0.0
25/03:30pm 18.6 15.7 6.4 45 6.1 E 11 15 6 8 1021.3 1021.3 0.0
25/03:00pm 19.2 15.9 6.3 43 6.4 E 13 17 7 9 1021.2 1021.2 0.0
25/02:30pm 18.9 15.5 5.7 42 6.5 E 13 15 7 8 1021.3 1021.3 0.0
25/02:00pm 19.1 15.8 6.2 43 6.4 ESE 13 15 7 8 1021.4 1021.4 0.0
25/01:30pm 19.3 15.6 6.1 42 6.5 E 15 19 8 10 1021.4 1021.4 0.0
25/01:00pm 19.3 15.5 5.7 41 6.7 ESE 15 19 8 10 1021.6 1021.6 0.0
25/12:30pm 19.0 15.3 4.4 38 7.0 ESE 13 15 7 8 1021.9 1021.9 0.0
25/12:00pm 19.3 15.4 3.5 35 7.4 SE 13 15 7 8 1022.3 1022.3 0.0
25/11:30am 19.1 15.3 3.7 36 7.3 SE 13 15 7 8 1023.0 1023.0 0.0
25/11:00am 19.7 16.3 4.2 36 7.4 SSE 11 15 6 8 1023.5 1023.5 0.0
25/10:30am 19.2 15.9 4.6 38 7.0 SW 11 15 6 8 1024.1 1024.1 0.0
25/10:00am 18.4 15.9 6.6 46 5.8 WSW 9 13 5 7 1024.4 1024.4 0.0
25/09:30am 16.5 14.9 8.0 57 4.3 WSW 6 7 3 4 1024.5 1024.5 0.0
25/09:00am 14.3 12.7 8.7 69 2.8 WNW 7 9 4 5 1024.5 1024.5 0.0
25/08:30am 12.0 10.8 9.6 85 1.2 NW 6 11 3 6 1024.3 1024.3 0.0
25/08:00am 9.0 8.5 7.9 93 0.5 CALM 0 0 0 0 1024.1 1024.1 0.0
25/07:30am 6.7 4.5 6.3 97 0.2 NW 7 9 4 5 1023.6 1023.6 0.0
25/07:00am 4.6 2.2 4.2 97 0.2 WNW 6 7 3 4 1023.3 1023.3 0.0
25/06:30am 4.4 1.4 4.0 97 0.2 WNW 9 11 5 6 1023.1 1023.1 0.0
25/06:00am 4.9 3.6 4.3 96 0.3 CALM 0 2 0 1 1022.7 1022.7 0.0
25/05:30am 4.7 2.1 4.1 96 0.3 W 7 9 4 5 1022.3 1022.3 0.0
25/05:00am 4.9 2.3 4.2 95 0.3 WNW 7 9 4 5 1022.1 1022.1 0.0
25/04:30am 5.2 2.8 4.3 94 0.4 W 6 11 3 6 1022.0 1022.0 0.0
25/04:00am 6.0 4.6 5.4 96 0.3 NW 2 7 1 4 1021.8 1021.8 0.0
25/03:30am 5.0 2.4 4.3 95 0.3 NW 7 9 4 5 1021.7 1021.7 0.0
25/03:00am 5.3 2.4 4.6 95 0.3 WNW 9 9 5 5 1021.5 1021.5 0.0
25/02:30am 5.4 2.5 4.7 95 0.3 WNW 9 11 5 6 1021.4 1021.4 0.0
25/02:00am 5.6 3.1 4.9 95 0.3 NW 7 9 4 5 1021.6 1021.6 0.0
25/01:30am 6.1 5.1 5.4 95 0.3 CALM 0 0 0 0 1021.8 1021.8 0.0
25/01:00am 6.1 3.7 5.2 94 0.4 NW 7 9 4 5 1021.8 1021.8 0.0
25/12:30am 6.7 4.5 6.0 95 0.3 NW 7 9 4 5 1021.7 1021.7 0.0
25/12:00am 7.3 4.8 6.6 95 0.3 NW 9 11 5 6 1022.0 1022.0 0.0
 
Date/Time
EST
Temp
°C
App
Temp
°C
Dew
Point
°C
Rel
Hum
%
Delta-T
°C
Wind Press
QNH
hPa
Press
MSL
hPa
Rain since
9am
mm
Dir  Spd
km/h
Gust
km/h
Spd
kts
Gust
kts
24/11:30pm 7.1 4.5 6.2 94 0.4 NW 9 9 5 5 1022.0 1022.0 0.0
24/11:00pm 7.7 5.6 6.8 94 0.4 NW 7 9 4 5 1022.1 1022.1 0.0
24/10:30pm 8.8 7.0 8.0 95 0.4 NW 7 9 4 5 1022.1 1022.1 0.0
24/10:00pm 8.2 6.5 7.4 95 0.4 NW 6 11 3 6 1021.9 1021.9 0.0
24/09:30pm 7.4 6.5 5.9 90 0.7 CALM 0 6 0 3 1021.9 1021.9 0.0
24/09:00pm 8.2 6.0 6.3 88 0.9 NW 7 7 4 4 1021.7 1021.7 0.0
24/08:30pm 9.8 8.0 7.9 88 0.9 W 7 11 4 6 1021.7 1021.7 0.0
24/08:00pm 10.1 8.2 8.9 92 0.6 WSW 9 15 5 8 1021.6 1021.6 0.0
24/07:30pm 9.9 8.2 8.5 91 0.7 NW 7 11 4 6 1021.2 1021.2 0.0
24/07:00pm 10.8 8.9 8.9 88 0.9 N 9 9 5 5 1020.8 1020.8 0.0

Other Formats:

Comma delimited format used in spreadsheet applications
http://www.bom.gov.au/fwo/IDN60801/IDN60801.95729.axf

JavaScript Object Notation format (JSON) in row-major order
http://www.bom.gov.au/fwo/IDN60801/IDN60801.95729.json